sensor_id;sensor_type;location;lat;lon;timestamp;temperature;humidity
67364;HTU21D;54250;45.572;38.086;2022-08-01T00:01:14;23.43;73.71
67364;HTU21D;54250;45.572;38.086;2022-08-01T00:03:40;23.36;73.80
67364;HTU21D;54250;45.572;38.086;2022-08-01T00:06:06;23.30;74.08
67364;HTU21D;54250;45.572;38.086;2022-08-01T00:08:32;23.26;74.31
67364;HTU21D;54250;45.572;38.086;2022-08-01T00:10:59;23.20;74.50
67364;HTU21D;54250;45.572;38.086;2022-08-01T00:13:25;23.12;74.80
67364;HTU21D;54250;45.572;38.086;2022-08-01T00:15:51;23.08;74.99
67364;HTU21D;54250;45.572;38.086;2022-08-01T00:18:17;23.07;75.30
67364;HTU21D;54250;45.572;38.086;2022-08-01T00:20:43;23.07;75.23
67364;HTU21D;54250;45.572;38.086;2022-08-01T00:23:09;23.08;75.21
67364;HTU21D;54250;45.572;38.086;2022-08-01T00:25:35;23.08;75.24
67364;HTU21D;54250;45.572;38.086;2022-08-01T00:28:01;23.08;75.16
67364;HTU21D;54250;45.572;38.086;2022-08-01T00:30:28;23.14;75.34
67364;HTU21D;54250;45.572;38.086;2022-08-01T00:32:54;23.22;75.04
67364;HTU21D;54250;45.572;38.086;2022-08-01T00:35:20;23.25;75.18
67364;HTU21D;54250;45.572;38.086;2022-08-01T00:37:46;23.26;75.14
67364;HTU21D;54250;45.572;38.086;2022-08-01T00:40:12;23.26;75.09
67364;HTU21D;54250;45.572;38.086;2022-08-01T00:42:38;23.27;75.28
67364;HTU21D;54250;45.572;38.086;2022-08-01T00:45:04;23.24;75.39
67364;HTU21D;54250;45.572;38.086;2022-08-01T00:47:30;23.22;75.63
67364;HTU21D;54250;45.572;38.086;2022-08-01T00:49:57;23.22;75.60
67364;HTU21D;54250;45.572;38.086;2022-08-01T00:52:23;23.16;75.57
67364;HTU21D;54250;45.572;38.086;2022-08-01T00:54:49;23.14;75.70
67364;HTU21D;54250;45.572;38.086;2022-08-01T00:57:15;23.10;75.95
67364;HTU21D;54250;45.572;38.086;2022-08-01T00:59:41;23.06;76.00
67364;HTU21D;54250;45.572;38.086;2022-08-01T01:02:08;23.03;76.24
67364;HTU21D;54250;45.572;38.086;2022-08-01T01:04:34;22.99;76.18
67364;HTU21D;54250;45.572;38.086;2022-08-01T01:07:09;22.99;76.37
67364;HTU21D;54250;45.572;38.086;2022-08-01T01:12:54;22.94;76.10
67364;HTU21D;54250;45.572;38.086;2022-08-01T01:15:34;22.93;76.09
67364;HTU21D;54250;45.572;38.086;2022-08-01T01:18:17;22.93;76.05
67364;HTU21D;54250;45.572;38.086;2022-08-01T01:20:50;22.95;76.22
67364;HTU21D;54250;45.572;38.086;2022-08-01T01:31:39;22.83;76.66
67364;HTU21D;54250;45.572;38.086;2022-08-01T01:34:07;22.82;76.70
67364;HTU21D;54250;45.572;38.086;2022-08-01T01:36:35;22.71;76.82
67364;HTU21D;54250;45.572;38.086;2022-08-01T01:39:02;22.66;77.27
67364;HTU21D;54250;45.572;38.086;2022-08-01T01:41:30;22.60;77.50
67364;HTU21D;54250;45.572;38.086;2022-08-01T01:43:57;22.52;77.60
67364;HTU21D;54250;45.572;38.086;2022-08-01T01:46:24;22.49;77.91
67364;HTU21D;54250;45.572;38.086;2022-08-01T01:48:54;22.43;77.95
67364;HTU21D;54250;45.572;38.086;2022-08-01T01:51:24;22.34;78.23
67364;HTU21D;54250;45.572;38.086;2022-08-01T01:53:53;22.28;78.36
67364;HTU21D;54250;45.572;38.086;2022-08-01T01:56:20;22.24;78.56
67364;HTU21D;54250;45.572;38.086;2022-08-01T01:58:53;22.18;78.95
67364;HTU21D;54250;45.572;38.086;2022-08-01T02:01:21;22.12;78.92
67364;HTU21D;54250;45.572;38.086;2022-08-01T02:03:51;22.10;79.16
67364;HTU21D;54250;45.572;38.086;2022-08-01T02:06:20;22.09;78.94
67364;HTU21D;54250;45.572;38.086;2022-08-01T02:08:48;22.08;78.92
67364;HTU21D;54250;45.572;38.086;2022-08-01T02:11:14;22.09;79.11
67364;HTU21D;54250;45.572;38.086;2022-08-01T02:13:57;22.09;79.48
67364;HTU21D;54250;45.572;38.086;2022-08-01T02:16:31;22.07;79.48
67364;HTU21D;54250;45.572;38.086;2022-08-01T02:18:59;22.02;79.40
67364;HTU21D;54250;45.572;38.086;2022-08-01T02:26:47;22.02;79.46
67364;HTU21D;54250;45.572;38.086;2022-08-01T02:29:21;22.03;79.22
67364;HTU21D;54250;45.572;38.086;2022-08-01T02:31:48;22.03;79.07
67364;HTU21D;54250;45.572;38.086;2022-08-01T02:34:18;22.11;79.24
67364;HTU21D;54250;45.572;38.086;2022-08-01T02:36:46;22.13;79.24
67364;HTU21D;54250;45.572;38.086;2022-08-01T02:39:16;22.20;79.07
67364;HTU21D;54250;45.572;38.086;2022-08-01T02:41:47;22.20;79.04
67364;HTU21D;54250;45.572;38.086;2022-08-01T02:44:24;22.22;79.06
67364;HTU21D;54250;45.572;38.086;2022-08-01T02:46:57;22.28;79.01
67364;HTU21D;54250;45.572;38.086;2022-08-01T02:49:31;22.33;78.95
67364;HTU21D;54250;45.572;38.086;2022-08-01T02:52:01;22.38;78.91
67364;HTU21D;54250;45.572;38.086;2022-08-01T02:54:30;22.44;78.82
67364;HTU21D;54250;45.572;38.086;2022-08-01T02:56:57;22.58;78.46
67364;HTU21D;54250;45.572;38.086;2022-08-01T02:59:24;22.99;77.57
67364;HTU21D;54250;45.572;38.086;2022-08-01T03:01:54;23.45;76.51
67364;HTU21D;54250;45.572;38.086;2022-08-01T03:04:22;23.84;75.50
67364;HTU21D;54250;45.572;38.086;2022-08-01T03:06:50;24.19;74.67
67364;HTU21D;54250;45.572;38.086;2022-08-01T03:09:18;24.54;73.99
67364;HTU21D;54250;45.572;38.086;2022-08-01T03:11:46;24.92;73.14
67364;HTU21D;54250;45.572;38.086;2022-08-01T03:14:14;25.18;72.46
67364;HTU21D;54250;45.572;38.086;2022-08-01T03:16:43;25.32;71.95
67364;HTU21D;54250;45.572;38.086;2022-08-01T03:19:11;25.48;71.53
67364;HTU21D;54250;45.572;38.086;2022-08-01T03:21:39;25.82;70.77
67364;HTU21D;54250;45.572;38.086;2022-08-01T03:24:08;26.18;69.87
67364;HTU21D;54250;45.572;38.086;2022-08-01T03:26:36;26.52;69.13
67364;HTU21D;54250;45.572;38.086;2022-08-01T03:29:10;26.90;68.20
67364;HTU21D;54250;45.572;38.086;2022-08-01T03:31:38;27.20;67.38
67364;HTU21D;54250;45.572;38.086;2022-08-01T03:34:08;27.76;66.20
67364;HTU21D;54250;45.572;38.086;2022-08-01T03:36:47;28.18;65.27
67364;HTU21D;54250;45.572;38.086;2022-08-01T03:39:16;28.44;64.55
67364;HTU21D;54250;45.572;38.086;2022-08-01T03:41:50;28.64;63.62
67364;HTU21D;54250;45.572;38.086;2022-08-01T03:44:21;28.80;63.32
67364;HTU21D;54250;45.572;38.086;2022-08-01T03:46:53;29.09;62.15
67364;HTU21D;54250;45.572;38.086;2022-08-01T03:49:42;29.35;61.50
67364;HTU21D;54250;45.572;38.086;2022-08-01T03:52:09;29.79;60.51
67364;HTU21D;54250;45.572;38.086;2022-08-01T03:54:40;30.33;59.47
67364;HTU21D;54250;45.572;38.086;2022-08-01T03:57:07;30.74;58.54
67364;HTU21D;54250;45.572;38.086;2022-08-01T03:59:34;31.08;57.52
67364;HTU21D;54250;45.572;38.086;2022-08-01T04:02:02;30.99;57.49
67364;HTU21D;54250;45.572;38.086;2022-08-01T04:04:30;31.20;56.68
67364;HTU21D;54250;45.572;38.086;2022-08-01T04:06:56;31.52;56.31
67364;HTU21D;54250;45.572;38.086;2022-08-01T04:09:22;31.97;55.82
67364;HTU21D;54250;45.572;38.086;2022-08-01T04:11:48;32.33;54.68
67364;HTU21D;54250;45.572;38.086;2022-08-01T04:14:14;32.67;53.44
67364;HTU21D;54250;45.572;38.086;2022-08-01T04:16:41;32.64;53.49
67364;HTU21D;54250;45.572;38.086;2022-08-01T04:19:07;33.02;53.04
67364;HTU21D;54250;45.572;38.086;2022-08-01T04:21:34;33.51;51.95
67364;HTU21D;54250;45.572;38.086;2022-08-01T04:24:13;33.64;51.69
67364;HTU21D;54250;45.572;38.086;2022-08-01T04:26:44;34.22;50.56
67364;HTU21D;54250;45.572;38.086;2022-08-01T04:29:11;34.47;49.92
67364;HTU21D;54250;45.572;38.086;2022-08-01T04:31:42;34.82;49.11
67364;HTU21D;54250;45.572;38.086;2022-08-01T04:34:12;34.51;49.15
67364;HTU21D;54250;45.572;38.086;2022-08-01T04:36:40;34.16;49.89
67364;HTU21D;54250;45.572;38.086;2022-08-01T04:39:10;34.09;49.70
67364;HTU21D;54250;45.572;38.086;2022-08-01T04:41:38;34.46;48.84
67364;HTU21D;54250;45.572;38.086;2022-08-01T04:44:05;35.08;48.00
67364;HTU21D;54250;45.572;38.086;2022-08-01T04:46:33;35.69;46.34
67364;HTU21D;54250;45.572;38.086;2022-08-01T04:49:00;35.60;46.63
67364;HTU21D;54250;45.572;38.086;2022-08-01T04:51:27;35.69;46.35
67364;HTU21D;54250;45.572;38.086;2022-08-01T04:53:53;36.28;45.52
67364;HTU21D;54250;45.572;38.086;2022-08-01T04:56:20;36.62;44.80
67364;HTU21D;54250;45.572;38.086;2022-08-01T04:58:46;36.91;44.42
67364;HTU21D;54250;45.572;38.086;2022-08-01T05:01:13;36.93;44.12
67364;HTU21D;54250;45.572;38.086;2022-08-01T05:03:39;37.06;44.43
67364;HTU21D;54250;45.572;38.086;2022-08-01T05:06:05;37.62;43.18
67364;HTU21D;54250;45.572;38.086;2022-08-01T05:08:32;37.54;42.39
67364;HTU21D;54250;45.572;38.086;2022-08-01T05:10:58;37.36;42.83
67364;HTU21D;54250;45.572;38.086;2022-08-01T05:13:24;37.62;42.66
67364;HTU21D;54250;45.572;38.086;2022-08-01T05:15:51;37.95;42.33
67364;HTU21D;54250;45.572;38.086;2022-08-01T05:18:18;38.19;41.93
67364;HTU21D;54250;45.572;38.086;2022-08-01T05:20:44;38.36;41.77
67364;HTU21D;54250;45.572;38.086;2022-08-01T05:23:10;38.86;40.68
67364;HTU21D;54250;45.572;38.086;2022-08-01T05:25:36;38.83;40.85
67364;HTU21D;54250;45.572;38.086;2022-08-01T05:28:04;38.94;40.91
67364;HTU21D;54250;45.572;38.086;2022-08-01T05:30:30;39.41;40.57
67364;HTU21D;54250;45.572;38.086;2022-08-01T05:32:56;40.41;39.37
67364;HTU21D;54250;45.572;38.086;2022-08-01T05:35:22;40.78;38.83
67364;HTU21D;54250;45.572;38.086;2022-08-01T05:37:48;41.13;38.35
67364;HTU21D;54250;45.572;38.086;2022-08-01T05:40:14;41.50;37.99
67364;HTU21D;54250;45.572;38.086;2022-08-01T05:42:40;41.87;37.28
67364;HTU21D;54250;45.572;38.086;2022-08-01T05:45:07;41.95;37.43
67364;HTU21D;54250;45.572;38.086;2022-08-01T05:47:33;41.66;37.37
67364;HTU21D;54250;45.572;38.086;2022-08-01T05:49:59;41.16;37.79
67364;HTU21D;54250;45.572;38.086;2022-08-01T05:52:25;41.11;37.89
67364;HTU21D;54250;45.572;38.086;2022-08-01T05:54:51;41.48;37.51
67364;HTU21D;54250;45.572;38.086;2022-08-01T05:57:17;41.79;36.95
67364;HTU21D;54250;45.572;38.086;2022-08-01T05:59:43;41.96;37.14
67364;HTU21D;54250;45.572;38.086;2022-08-01T06:02:09;41.64;37.24
67364;HTU21D;54250;45.572;38.086;2022-08-01T06:04:36;41.55;37.52
67364;HTU21D;54250;45.572;38.086;2022-08-01T06:07:02;42.07;36.95
67364;HTU21D;54250;45.572;38.086;2022-08-01T06:09:28;42.57;36.30
67364;HTU21D;54250;45.572;38.086;2022-08-01T06:11:56;43.06;36.04
67364;HTU21D;54250;45.572;38.086;2022-08-01T06:14:22;43.25;35.42
67364;HTU21D;54250;45.572;38.086;2022-08-01T06:19:33;43.39;35.82
67364;HTU21D;54250;45.572;38.086;2022-08-01T06:21:59;43.62;35.06
67364;HTU21D;54250;45.572;38.086;2022-08-01T06:24:25;44.09;34.62
67364;HTU21D;54250;45.572;38.086;2022-08-01T06:26:52;44.62;33.77
67364;HTU21D;54250;45.572;38.086;2022-08-01T06:29:18;44.29;34.14
67364;HTU21D;54250;45.572;38.086;2022-08-01T06:31:45;44.52;34.21
67364;HTU21D;54250;45.572;38.086;2022-08-01T06:34:11;44.94;33.46
67364;HTU21D;54250;45.572;38.086;2022-08-01T06:36:37;45.20;33.09
67364;HTU21D;54250;45.572;38.086;2022-08-01T06:39:03;45.66;32.93
67364;HTU21D;54250;45.572;38.086;2022-08-01T06:41:29;45.68;32.32
67364;HTU21D;54250;45.572;38.086;2022-08-01T06:43:55;44.99;32.99
67364;HTU21D;54250;45.572;38.086;2022-08-01T06:46:21;44.85;33.18
67364;HTU21D;54250;45.572;38.086;2022-08-01T06:48:47;45.48;32.90
67364;HTU21D;54250;45.572;38.086;2022-08-01T06:51:14;45.56;32.67
67364;HTU21D;54250;45.572;38.086;2022-08-01T06:53:43;45.56;32.09
67364;HTU21D;54250;45.572;38.086;2022-08-01T06:56:09;45.38;32.54
67364;HTU21D;54250;45.572;38.086;2022-08-01T06:58:35;45.87;32.23
67364;HTU21D;54250;45.572;38.086;2022-08-01T07:01:03;46.52;31.46
67364;HTU21D;54250;45.572;38.086;2022-08-01T07:03:36;46.73;30.61
67364;HTU21D;54250;45.572;38.086;2022-08-01T07:06:02;46.29;31.51
67364;HTU21D;54250;45.572;38.086;2022-08-01T07:08:28;46.54;31.20
67364;HTU21D;54250;45.572;38.086;2022-08-01T07:10:55;46.66;30.93
67364;HTU21D;54250;45.572;38.086;2022-08-01T07:13:26;45.89;31.36
67364;HTU21D;54250;45.572;38.086;2022-08-01T07:15:52;44.58;32.72
67364;HTU21D;54250;45.572;38.086;2022-08-01T07:18:19;44.12;33.57
67364;HTU21D;54250;45.572;38.086;2022-08-01T07:20:45;44.88;32.94
67364;HTU21D;54250;45.572;38.086;2022-08-01T07:23:14;45.02;32.44
67364;HTU21D;54250;45.572;38.086;2022-08-01T07:25:40;44.12;33.81
67364;HTU21D;54250;45.572;38.086;2022-08-01T07:28:06;44.18;33.60
67364;HTU21D;54250;45.572;38.086;2022-08-01T07:30:33;44.62;32.73
67364;HTU21D;54250;45.572;38.086;2022-08-01T07:32:59;45.34;32.12
67364;HTU21D;54250;45.572;38.086;2022-08-01T07:35:25;45.02;32.00
67364;HTU21D;54250;45.572;38.086;2022-08-01T07:37:52;45.40;31.97
67364;HTU21D;54250;45.572;38.086;2022-08-01T07:40:19;43.57;34.80
67364;HTU21D;54250;45.572;38.086;2022-08-01T07:42:46;42.53;35.85
67364;HTU21D;54250;45.572;38.086;2022-08-01T07:45:13;42.48;36.20
67364;HTU21D;54250;45.572;38.086;2022-08-01T07:47:40;42.10;36.69
67364;HTU21D;54250;45.572;38.086;2022-08-01T07:50:07;41.52;37.06
67364;HTU21D;54250;45.572;38.086;2022-08-01T07:52:33;40.51;38.25
67364;HTU21D;54250;45.572;38.086;2022-08-01T07:54:59;39.78;39.97
67364;HTU21D;54250;45.572;38.086;2022-08-01T07:57:25;40.32;39.36
67364;HTU21D;54250;45.572;38.086;2022-08-01T07:59:52;41.15;38.40
67364;HTU21D;54250;45.572;38.086;2022-08-01T08:02:18;41.39;37.66
67364;HTU21D;54250;45.572;38.086;2022-08-01T08:04:44;40.37;38.78
67364;HTU21D;54250;45.572;38.086;2022-08-01T08:07:10;40.87;39.10
67364;HTU21D;54250;45.572;38.086;2022-08-01T08:09:36;40.68;38.78
67364;HTU21D;54250;45.572;38.086;2022-08-01T08:12:02;40.33;39.09
67364;HTU21D;54250;45.572;38.086;2022-08-01T08:14:28;41.06;38.23
67364;HTU21D;54250;45.572;38.086;2022-08-01T08:16:55;42.05;36.58
67364;HTU21D;54250;45.572;38.086;2022-08-01T08:19:21;42.35;36.20
67364;HTU21D;54250;45.572;38.086;2022-08-01T08:21:47;42.52;36.24
67364;HTU21D;54250;45.572;38.086;2022-08-01T08:24:13;43.16;35.49
67364;HTU21D;54250;45.572;38.086;2022-08-01T08:26:46;43.08;35.97
67364;HTU21D;54250;45.572;38.086;2022-08-01T08:29:13;42.48;36.83
67364;HTU21D;54250;45.572;38.086;2022-08-01T08:31:39;41.75;37.69
67364;HTU21D;54250;45.572;38.086;2022-08-01T08:34:05;41.36;37.86
67364;HTU21D;54250;45.572;38.086;2022-08-01T08:36:32;40.85;38.33
67364;HTU21D;54250;45.572;38.086;2022-08-01T08:38:59;39.63;39.92
67364;HTU21D;54250;45.572;38.086;2022-08-01T08:41:34;39.64;40.17
67364;HTU21D;54250;45.572;38.086;2022-08-01T08:44:05;40.76;38.30
67364;HTU21D;54250;45.572;38.086;2022-08-01T08:46:33;40.87;38.02
67364;HTU21D;54250;45.572;38.086;2022-08-01T08:49:02;40.68;38.40
67364;HTU21D;54250;45.572;38.086;2022-08-01T08:51:31;40.70;38.01
67364;HTU21D;54250;45.572;38.086;2022-08-01T08:53:58;40.31;38.99
67364;HTU21D;54250;45.572;38.086;2022-08-01T08:56:26;39.67;39.65
67364;HTU21D;54250;45.572;38.086;2022-08-01T08:58:56;40.28;38.43
67364;HTU21D;54250;45.572;38.086;2022-08-01T09:01:22;41.28;37.31
67364;HTU21D;54250;45.572;38.086;2022-08-01T09:03:49;42.10;36.19
67364;HTU21D;54250;45.572;38.086;2022-08-01T09:06:15;41.25;37.05
67364;HTU21D;54250;45.572;38.086;2022-08-01T09:08:41;39.83;39.71
67364;HTU21D;54250;45.572;38.086;2022-08-01T09:11:07;39.48;40.36
67364;HTU21D;54250;45.572;38.086;2022-08-01T09:13:33;38.79;41.65
67364;HTU21D;54250;45.572;38.086;2022-08-01T09:15:59;38.55;41.82
67364;HTU21D;54250;45.572;38.086;2022-08-01T09:18:39;39.64;40.03
67364;HTU21D;54250;45.572;38.086;2022-08-01T09:26:14;41.05;37.24
67364;HTU21D;54250;45.572;38.086;2022-08-01T09:28:42;40.44;38.27
67364;HTU21D;54250;45.572;38.086;2022-08-01T09:31:13;40.51;38.59
67364;HTU21D;54250;45.572;38.086;2022-08-01T09:33:58;39.40;40.00
67364;HTU21D;54250;45.572;38.086;2022-08-01T09:36:42;38.39;41.67
67364;HTU21D;54250;45.572;38.086;2022-08-01T09:39:13;37.76;42.83
67364;HTU21D;54250;45.572;38.086;2022-08-01T09:41:39;37.55;43.07
67364;HTU21D;54250;45.572;38.086;2022-08-01T09:44:06;37.62;43.00
67364;HTU21D;54250;45.572;38.086;2022-08-01T09:46:32;37.30;42.97
67364;HTU21D;54250;45.572;38.086;2022-08-01T09:49:00;36.98;44.45
67364;HTU21D;54250;45.572;38.086;2022-08-01T09:51:38;36.95;45.29
67364;HTU21D;54250;45.572;38.086;2022-08-01T09:54:06;36.98;45.96
67364;HTU21D;54250;45.572;38.086;2022-08-01T09:56:40;37.10;46.37
67364;HTU21D;54250;45.572;38.086;2022-08-01T09:59:08;37.03;46.92
67364;HTU21D;54250;45.572;38.086;2022-08-01T10:06:41;36.85;46.92
67364;HTU21D;54250;45.572;38.086;2022-08-01T10:09:12;37.06;46.90
67364;HTU21D;54250;45.572;38.086;2022-08-01T10:11:41;37.17;46.55
67364;HTU21D;54250;45.572;38.086;2022-08-01T10:14:07;37.33;45.80
67364;HTU21D;54250;45.572;38.086;2022-08-01T10:16:36;37.36;45.96
67364;HTU21D;54250;45.572;38.086;2022-08-01T10:19:05;37.41;46.25
67364;HTU21D;54250;45.572;38.086;2022-08-01T10:21:33;37.20;46.02
67364;HTU21D;54250;45.572;38.086;2022-08-01T10:24:01;36.76;46.57
67364;HTU21D;54250;45.572;38.086;2022-08-01T10:26:31;36.60;46.76
67364;HTU21D;54250;45.572;38.086;2022-08-01T10:28:57;36.38;48.24
67364;HTU21D;54250;45.572;38.086;2022-08-01T10:31:24;36.53;47.67
67364;HTU21D;54250;45.572;38.086;2022-08-01T10:33:50;36.56;47.60
67364;HTU21D;54250;45.572;38.086;2022-08-01T10:36:20;36.25;48.08
67364;HTU21D;54250;45.572;38.086;2022-08-01T10:38:47;36.01;48.18
67364;HTU21D;54250;45.572;38.086;2022-08-01T10:41:13;36.08;48.71
67364;HTU21D;54250;45.572;38.086;2022-08-01T10:43:43;36.54;47.65
67364;HTU21D;54250;45.572;38.086;2022-08-01T10:46:09;36.86;47.18
67364;HTU21D;54250;45.572;38.086;2022-08-01T10:49:01;36.87;46.52
67364;HTU21D;54250;45.572;38.086;2022-08-01T10:51:28;36.80;46.73
67364;HTU21D;54250;45.572;38.086;2022-08-01T10:53:54;37.08;47.40
67364;HTU21D;54250;45.572;38.086;2022-08-01T10:56:21;37.34;46.53
67364;HTU21D;54250;45.572;38.086;2022-08-01T10:58:48;37.33;46.61
67364;HTU21D;54250;45.572;38.086;2022-08-01T11:03:42;36.74;47.45
67364;HTU21D;54250;45.572;38.086;2022-08-01T11:06:17;36.71;47.73
67364;HTU21D;54250;45.572;38.086;2022-08-01T11:08:53;36.61;47.58
67364;HTU21D;54250;45.572;38.086;2022-08-01T11:11:20;36.52;47.75
67364;HTU21D;54250;45.572;38.086;2022-08-01T11:16:31;36.54;48.30
67364;HTU21D;54250;45.572;38.086;2022-08-01T11:18:58;36.61;48.15
67364;HTU21D;54250;45.572;38.086;2022-08-01T11:32:48;35.60;49.95
67364;HTU21D;54250;45.572;38.086;2022-08-01T11:35:15;35.56;50.12
67364;HTU21D;54250;45.572;38.086;2022-08-01T11:37:41;35.51;51.16
67364;HTU21D;54250;45.572;38.086;2022-08-01T11:45:55;35.20;51.30
67364;HTU21D;54250;45.572;38.086;2022-08-01T11:48:25;35.26;51.37
67364;HTU21D;54250;45.572;38.086;2022-08-01T11:50:53;35.44;50.86
67364;HTU21D;54250;45.572;38.086;2022-08-01T11:53:20;35.42;50.50
67364;HTU21D;54250;45.572;38.086;2022-08-01T11:55:51;35.11;51.58
67364;HTU21D;54250;45.572;38.086;2022-08-01T11:58:25;35.13;52.11
67364;HTU21D;54250;45.572;38.086;2022-08-01T12:00:53;35.34;51.16
67364;HTU21D;54250;45.572;38.086;2022-08-01T12:03:24;35.37;51.78
67364;HTU21D;54250;45.572;38.086;2022-08-01T12:05:53;35.38;51.49
67364;HTU21D;54250;45.572;38.086;2022-08-01T12:08:35;35.22;51.52
67364;HTU21D;54250;45.572;38.086;2022-08-01T12:11:04;35.12;51.70
67364;HTU21D;54250;45.572;38.086;2022-08-01T12:13:43;35.05;52.45
67364;HTU21D;54250;45.572;38.086;2022-08-01T12:16:10;34.80;52.40
67364;HTU21D;54250;45.572;38.086;2022-08-01T12:18:41;34.32;53.66
67364;HTU21D;54250;45.572;38.086;2022-08-01T12:21:08;33.90;54.02
67364;HTU21D;54250;45.572;38.086;2022-08-01T12:23:34;33.67;54.46
67364;HTU21D;54250;45.572;38.086;2022-08-01T12:26:00;33.53;54.37
67364;HTU21D;54250;45.572;38.086;2022-08-01T12:28:27;33.37;54.64
67364;HTU21D;54250;45.572;38.086;2022-08-01T12:30:53;33.16;55.23
67364;HTU21D;54250;45.572;38.086;2022-08-01T12:33:20;32.92;55.74
67364;HTU21D;54250;45.572;38.086;2022-08-01T12:35:47;32.70;56.21
67364;HTU21D;54250;45.572;38.086;2022-08-01T12:38:19;32.56;56.56
67364;HTU21D;54250;45.572;38.086;2022-08-01T12:40:47;32.37;56.89
67364;HTU21D;54250;45.572;38.086;2022-08-01T12:43:19;32.18;57.69
67364;HTU21D;54250;45.572;38.086;2022-08-01T12:45:48;32.00;57.98
67364;HTU21D;54250;45.572;38.086;2022-08-01T12:48:17;31.80;58.62
67364;HTU21D;54250;45.572;38.086;2022-08-01T12:50:46;31.65;58.94
67364;HTU21D;54250;45.572;38.086;2022-08-01T12:53:13;31.48;59.24
67364;HTU21D;54250;45.572;38.086;2022-08-01T12:55:49;31.30;59.91
67364;HTU21D;54250;45.572;38.086;2022-08-01T12:58:16;31.19;60.61
67364;HTU21D;54250;45.572;38.086;2022-08-01T13:00:45;31.05;61.25
67364;HTU21D;54250;45.572;38.086;2022-08-01T13:03:17;30.84;62.47
67364;HTU21D;54250;45.572;38.086;2022-08-01T13:05:54;30.65;63.69
67364;HTU21D;54250;45.572;38.086;2022-08-01T13:08:32;30.47;64.47
67364;HTU21D;54250;45.572;38.086;2022-08-01T13:11:10;30.32;65.17
67364;HTU21D;54250;45.572;38.086;2022-08-01T13:13:50;30.21;65.53
67364;HTU21D;54250;45.572;38.086;2022-08-01T13:16:19;30.08;66.12
67364;HTU21D;54250;45.572;38.086;2022-08-01T13:18:52;30.00;66.78
67364;HTU21D;54250;45.572;38.086;2022-08-01T13:21:26;29.92;67.02
67364;HTU21D;54250;45.572;38.086;2022-08-01T13:24:03;29.88;67.07
67364;HTU21D;54250;45.572;38.086;2022-08-01T13:26:49;29.88;67.27
67364;HTU21D;54250;45.572;38.086;2022-08-01T13:29:17;29.91;67.16
67364;HTU21D;54250;45.572;38.086;2022-08-01T13:31:44;29.96;67.33
67364;HTU21D;54250;45.572;38.086;2022-08-01T13:34:10;30.00;67.23
67364;HTU21D;54250;45.572;38.086;2022-08-01T13:36:38;30.04;67.43
67364;HTU21D;54250;45.572;38.086;2022-08-01T13:39:05;30.10;67.32
67364;HTU21D;54250;45.572;38.086;2022-08-01T13:41:50;30.17;67.01
67364;HTU21D;54250;45.572;38.086;2022-08-01T13:44:16;30.25;66.57
67364;HTU21D;54250;45.572;38.086;2022-08-01T13:46:43;30.31;66.72
67364;HTU21D;54250;45.572;38.086;2022-08-01T13:49:10;30.39;66.64
67364;HTU21D;54250;45.572;38.086;2022-08-01T13:51:38;30.47;66.24
67364;HTU21D;54250;45.572;38.086;2022-08-01T13:54:04;30.49;66.11
67364;HTU21D;54250;45.572;38.086;2022-08-01T13:56:31;30.52;65.84
67364;HTU21D;54250;45.572;38.086;2022-08-01T13:58:58;30.52;65.44
67364;HTU21D;54250;45.572;38.086;2022-08-01T14:01:24;30.52;65.71
67364;HTU21D;54250;45.572;38.086;2022-08-01T14:03:51;30.52;65.57
67364;HTU21D;54250;45.572;38.086;2022-08-01T14:06:18;30.54;65.92
67364;HTU21D;54250;45.572;38.086;2022-08-01T14:08:44;30.57;66.12
67364;HTU21D;54250;45.572;38.086;2022-08-01T14:11:11;30.62;66.10
67364;HTU21D;54250;45.572;38.086;2022-08-01T14:13:37;30.67;66.04
67364;HTU21D;54250;45.572;38.086;2022-08-01T14:16:05;30.71;65.96
67364;HTU21D;54250;45.572;38.086;2022-08-01T14:18:32;30.79;65.83
67364;HTU21D;54250;45.572;38.086;2022-08-01T14:20:58;30.89;65.67
67364;HTU21D;54250;45.572;38.086;2022-08-01T14:23:24;30.97;65.77
67364;HTU21D;54250;45.572;38.086;2022-08-01T14:25:50;31.06;65.83
67364;HTU21D;54250;45.572;38.086;2022-08-01T14:28:16;31.12;66.26
67364;HTU21D;54250;45.572;38.086;2022-08-01T14:30:43;31.14;66.55
67364;HTU21D;54250;45.572;38.086;2022-08-01T14:33:12;31.08;66.74
67364;HTU21D;54250;45.572;38.086;2022-08-01T14:35:40;31.00;66.88
67364;HTU21D;54250;45.572;38.086;2022-08-01T14:38:06;30.95;66.99
67364;HTU21D;54250;45.572;38.086;2022-08-01T14:40:34;30.92;67.23
67364;HTU21D;54250;45.572;38.086;2022-08-01T14:43:00;30.87;67.53
67364;HTU21D;54250;45.572;38.086;2022-08-01T14:45:27;30.72;67.94
67364;HTU21D;54250;45.572;38.086;2022-08-01T14:47:53;30.55;68.60
67364;HTU21D;54250;45.572;38.086;2022-08-01T14:50:20;30.44;68.76
67364;HTU21D;54250;45.572;38.086;2022-08-01T14:52:46;30.34;68.84
67364;HTU21D;54250;45.572;38.086;2022-08-01T14:55:13;30.27;69.16
67364;HTU21D;54250;45.572;38.086;2022-08-01T14:57:39;30.24;69.51
67364;HTU21D;54250;45.572;38.086;2022-08-01T15:00:08;30.18;69.71
67364;HTU21D;54250;45.572;38.086;2022-08-01T15:02:39;30.13;69.54
67364;HTU21D;54250;45.572;38.086;2022-08-01T15:05:06;30.10;69.68
67364;HTU21D;54250;45.572;38.086;2022-08-01T15:07:32;30.04;69.74
67364;HTU21D;54250;45.572;38.086;2022-08-01T15:09:58;29.97;69.90
67364;HTU21D;54250;45.572;38.086;2022-08-01T15:12:24;29.95;70.15
67364;HTU21D;54250;45.572;38.086;2022-08-01T15:14:50;29.90;70.32
67364;HTU21D;54250;45.572;38.086;2022-08-01T15:17:25;29.86;70.58
67364;HTU21D;54250;45.572;38.086;2022-08-01T15:19:53;29.81;70.68
67364;HTU21D;54250;45.572;38.086;2022-08-01T15:22:21;29.78;70.71
67364;HTU21D;54250;45.572;38.086;2022-08-01T15:24:49;29.73;70.94
67364;HTU21D;54250;45.572;38.086;2022-08-01T15:27:15;29.71;70.99
67364;HTU21D;54250;45.572;38.086;2022-08-01T15:29:41;29.67;71.03
67364;HTU21D;54250;45.572;38.086;2022-08-01T15:32:08;29.63;71.17
67364;HTU21D;54250;45.572;38.086;2022-08-01T15:34:36;29.60;71.15
67364;HTU21D;54250;45.572;38.086;2022-08-01T15:37:03;29.59;71.26
67364;HTU21D;54250;45.572;38.086;2022-08-01T15:39:30;29.56;71.39
67364;HTU21D;54250;45.572;38.086;2022-08-01T15:42:02;29.60;71.69
67364;HTU21D;54250;45.572;38.086;2022-08-01T15:44:29;29.64;71.36
67364;HTU21D;54250;45.572;38.086;2022-08-01T15:46:55;29.71;71.17
67364;HTU21D;54250;45.572;38.086;2022-08-01T15:49:22;29.75;71.14
67364;HTU21D;54250;45.572;38.086;2022-08-01T15:51:49;29.77;71.29
67364;HTU21D;54250;45.572;38.086;2022-08-01T15:54:17;29.74;71.30
67364;HTU21D;54250;45.572;38.086;2022-08-01T15:56:43;29.67;71.71
67364;HTU21D;54250;45.572;38.086;2022-08-01T15:59:09;29.60;71.83
67364;HTU21D;54250;45.572;38.086;2022-08-01T16:01:36;29.50;72.07